sensor_id;sensor_type;location;lat;lon;timestamp;P1;durP1;ratioP1;P2;durP2;ratioP2
53269;SDS011;39159;45.634;9.420;2023-07-28T00:00:56;6.70;;;2.55;;
53269;SDS011;39159;45.634;9.420;2023-07-28T00:03:21;5.22;;;2.55;;
53269;SDS011;39159;45.634;9.420;2023-07-28T00:05:47;9.52;;;2.83;;
53269;SDS011;39159;45.634;9.420;2023-07-28T00:08:12;4.47;;;2.33;;
53269;SDS011;39159;45.634;9.420;2023-07-28T00:10:41;4.45;;;2.22;;
53269;SDS011;39159;45.634;9.420;2023-07-28T00:13:07;3.83;;;2.33;;
53269;SDS011;39159;45.634;9.420;2023-07-28T00:15:32;3.92;;;1.92;;
53269;SDS011;39159;45.634;9.420;2023-07-28T00:17:58;4.47;;;2.05;;
53269;SDS011;39159;45.634;9.420;2023-07-28T00:20:24;4.75;;;2.20;;
53269;SDS011;39159;45.634;9.420;2023-07-28T00:22:51;5.07;;;2.17;;
53269;SDS011;39159;45.634;9.420;2023-07-28T00:25:16;4.38;;;2.33;;
53269;SDS011;39159;45.634;9.420;2023-07-28T00:27:42;4.15;;;2.30;;
53269;SDS011;39159;45.634;9.420;2023-07-28T00:30:08;3.47;;;2.25;;
53269;SDS011;39159;45.634;9.420;2023-07-28T00:32:35;2.65;;;1.83;;
53269;SDS011;39159;45.634;9.420;2023-07-28T00:35:01;4.70;;;2.50;;
53269;SDS011;39159;45.634;9.420;2023-07-28T00:37:26;4.15;;;2.63;;
53269;SDS011;39159;45.634;9.420;2023-07-28T00:39:52;5.57;;;2.30;;
53269;SDS011;39159;45.634;9.420;2023-07-28T00:42:17;4.40;;;2.22;;
53269;SDS011;39159;45.634;9.420;2023-07-28T00:44:42;4.82;;;2.10;;
53269;SDS011;39159;45.634;9.420;2023-07-28T00:47:08;5.70;;;2.20;;
53269;SDS011;39159;45.634;9.420;2023-07-28T00:49:33;4.25;;;2.80;;
53269;SDS011;39159;45.634;9.420;2023-07-28T00:51:59;3.70;;;2.20;;
53269;SDS011;39159;45.634;9.420;2023-07-28T00:54:25;3.63;;;2.35;;
53269;SDS011;39159;45.634;9.420;2023-07-28T00:56:51;5.10;;;2.08;;
53269;SDS011;39159;45.634;9.420;2023-07-28T00:59:16;3.40;;;2.10;;
53269;SDS011;39159;45.634;9.420;2023-07-28T01:01:42;4.07;;;2.15;;
53269;SDS011;39159;45.634;9.420;2023-07-28T01:04:07;3.05;;;2.00;;
53269;SDS011;39159;45.634;9.420;2023-07-28T01:06:36;3.45;;;2.30;;
53269;SDS011;39159;45.634;9.420;2023-07-28T01:09:10;3.20;;;1.98;;
53269;SDS011;39159;45.634;9.420;2023-07-28T01:11:52;7.03;;;2.20;;
53269;SDS011;39159;45.634;9.420;2023-07-28T01:14:19;2.97;;;2.08;;
53269;SDS011;39159;45.634;9.420;2023-07-28T01:16:44;3.00;;;2.00;;
53269;SDS011;39159;45.634;9.420;2023-07-28T01:19:10;4.53;;;2.42;;
53269;SDS011;39159;45.634;9.420;2023-07-28T01:21:37;6.20;;;2.50;;
53269;SDS011;39159;45.634;9.420;2023-07-28T01:26:45;3.08;;;2.00;;
53269;SDS011;39159;45.634;9.420;2023-07-28T01:29:11;5.50;;;2.10;;
53269;SDS011;39159;45.634;9.420;2023-07-28T01:31:40;5.13;;;2.10;;
53269;SDS011;39159;45.634;9.420;2023-07-28T01:34:05;2.63;;;1.73;;
53269;SDS011;39159;45.634;9.420;2023-07-28T01:36:31;3.72;;;1.90;;
53269;SDS011;39159;45.634;9.420;2023-07-28T01:38:56;4.35;;;2.20;;
53269;SDS011;39159;45.634;9.420;2023-07-28T01:41:22;3.00;;;2.00;;
53269;SDS011;39159;45.634;9.420;2023-07-28T01:43:47;4.25;;;1.95;;
53269;SDS011;39159;45.634;9.420;2023-07-28T01:46:13;3.85;;;2.10;;
53269;SDS011;39159;45.634;9.420;2023-07-28T01:48:38;4.25;;;2.33;;
53269;SDS011;39159;45.634;9.420;2023-07-28T01:51:04;3.45;;;1.85;;
53269;SDS011;39159;45.634;9.420;2023-07-28T01:53:29;5.28;;;2.15;;
53269;SDS011;39159;45.634;9.420;2023-07-28T01:55:54;2.50;;;1.92;;
53269;SDS011;39159;45.634;9.420;2023-07-28T01:58:20;3.38;;;2.20;;
53269;SDS011;39159;45.634;9.420;2023-07-28T02:00:45;3.10;;;2.03;;
53269;SDS011;39159;45.634;9.420;2023-07-28T02:03:11;4.85;;;2.47;;
53269;SDS011;39159;45.634;9.420;2023-07-28T02:05:37;3.42;;;1.92;;
53269;SDS011;39159;45.634;9.420;2023-07-28T02:08:02;2.97;;;2.10;;
53269;SDS011;39159;45.634;9.420;2023-07-28T02:10:28;3.65;;;2.20;;
53269;SDS011;39159;45.634;9.420;2023-07-28T02:12:54;5.50;;;1.95;;
53269;SDS011;39159;45.634;9.420;2023-07-28T02:15:19;2.55;;;2.03;;
53269;SDS011;39159;45.634;9.420;2023-07-28T02:17:45;4.07;;;2.13;;
53269;SDS011;39159;45.634;9.420;2023-07-28T02:20:10;5.10;;;2.35;;
53269;SDS011;39159;45.634;9.420;2023-07-28T02:22:38;2.30;;;1.70;;
53269;SDS011;39159;45.634;9.420;2023-07-28T02:25:04;3.60;;;2.10;;
53269;SDS011;39159;45.634;9.420;2023-07-28T02:27:30;6.90;;;2.22;;
53269;SDS011;39159;45.634;9.420;2023-07-28T02:29:56;4.50;;;2.20;;
53269;SDS011;39159;45.634;9.420;2023-07-28T02:32:21;4.22;;;2.40;;
53269;SDS011;39159;45.634;9.420;2023-07-28T02:34:47;4.60;;;2.15;;
53269;SDS011;39159;45.634;9.420;2023-07-28T02:37:14;3.45;;;2.25;;
53269;SDS011;39159;45.634;9.420;2023-07-28T02:39:40;4.32;;;2.00;;
53269;SDS011;39159;45.634;9.420;2023-07-28T02:42:05;4.85;;;2.15;;
53269;SDS011;39159;45.634;9.420;2023-07-28T02:44:31;4.75;;;2.08;;
53269;SDS011;39159;45.634;9.420;2023-07-28T02:46:57;5.40;;;2.35;;
53269;SDS011;39159;45.634;9.420;2023-07-28T02:49:22;4.18;;;2.08;;
53269;SDS011;39159;45.634;9.420;2023-07-28T02:51:47;3.38;;;2.00;;
53269;SDS011;39159;45.634;9.420;2023-07-28T02:54:13;3.63;;;2.38;;
53269;SDS011;39159;45.634;9.420;2023-07-28T02:56:38;3.58;;;2.13;;
53269;SDS011;39159;45.634;9.420;2023-07-28T02:59:04;5.85;;;2.45;;
53269;SDS011;39159;45.634;9.420;2023-07-28T03:01:30;3.90;;;2.38;;
53269;SDS011;39159;45.634;9.420;2023-07-28T03:04:00;3.85;;;2.30;;
53269;SDS011;39159;45.634;9.420;2023-07-28T03:06:26;2.92;;;2.10;;
53269;SDS011;39159;45.634;9.420;2023-07-28T03:08:52;4.05;;;2.40;;
53269;SDS011;39159;45.634;9.420;2023-07-28T03:11:17;6.78;;;2.28;;
53269;SDS011;39159;45.634;9.420;2023-07-28T03:13:43;2.95;;;2.40;;
53269;SDS011;39159;45.634;9.420;2023-07-28T03:16:08;4.65;;;2.33;;
53269;SDS011;39159;45.634;9.420;2023-07-28T03:18:34;6.70;;;2.30;;
53269;SDS011;39159;45.634;9.420;2023-07-28T03:21:00;3.25;;;2.00;;
53269;SDS011;39159;45.634;9.420;2023-07-28T03:23:25;3.63;;;1.92;;
53269;SDS011;39159;45.634;9.420;2023-07-28T03:25:51;4.05;;;1.92;;
53269;SDS011;39159;45.634;9.420;2023-07-28T03:28:17;4.50;;;2.33;;
53269;SDS011;39159;45.634;9.420;2023-07-28T03:30:42;4.18;;;2.58;;
53269;SDS011;39159;45.634;9.420;2023-07-28T03:33:07;3.08;;;2.30;;
53269;SDS011;39159;45.634;9.420;2023-07-28T03:35:33;3.42;;;2.03;;
53269;SDS011;39159;45.634;9.420;2023-07-28T03:37:58;2.65;;;2.00;;
53269;SDS011;39159;45.634;9.420;2023-07-28T03:40:24;3.58;;;2.40;;
53269;SDS011;39159;45.634;9.420;2023-07-28T03:42:49;3.22;;;2.17;;
53269;SDS011;39159;45.634;9.420;2023-07-28T03:45:15;4.13;;;2.47;;
53269;SDS011;39159;45.634;9.420;2023-07-28T03:47:41;3.42;;;2.10;;
53269;SDS011;39159;45.634;9.420;2023-07-28T03:50:07;3.53;;;2.10;;
53269;SDS011;39159;45.634;9.420;2023-07-28T03:52:32;4.25;;;2.33;;
53269;SDS011;39159;45.634;9.420;2023-07-28T03:54:58;3.20;;;2.10;;
53269;SDS011;39159;45.634;9.420;2023-07-28T03:57:23;2.75;;;2.05;;
53269;SDS011;39159;45.634;9.420;2023-07-28T03:59:49;3.33;;;2.17;;
53269;SDS011;39159;45.634;9.420;2023-07-28T04:02:14;4.45;;;2.22;;
53269;SDS011;39159;45.634;9.420;2023-07-28T04:04:39;5.15;;;2.50;;
53269;SDS011;39159;45.634;9.420;2023-07-28T04:07:05;4.97;;;2.65;;
53269;SDS011;39159;45.634;9.420;2023-07-28T04:09:31;4.22;;;2.20;;
53269;SDS011;39159;45.634;9.420;2023-07-28T04:11:56;4.05;;;2.25;;
53269;SDS011;39159;45.634;9.420;2023-07-28T04:14:22;9.05;;;2.50;;
53269;SDS011;39159;45.634;9.420;2023-07-28T04:16:47;4.55;;;2.17;;
53269;SDS011;39159;45.634;9.420;2023-07-28T04:19:12;4.22;;;2.58;;
53269;SDS011;39159;45.634;9.420;2023-07-28T04:21:38;6.55;;;3.40;;
53269;SDS011;39159;45.634;9.420;2023-07-28T04:24:05;5.85;;;3.08;;
53269;SDS011;39159;45.634;9.420;2023-07-28T04:26:34;6.65;;;3.10;;
53269;SDS011;39159;45.634;9.420;2023-07-28T04:29:00;4.60;;;2.65;;
53269;SDS011;39159;45.634;9.420;2023-07-28T04:31:25;6.20;;;2.90;;
53269;SDS011;39159;45.634;9.420;2023-07-28T04:33:51;4.13;;;2.80;;
53269;SDS011;39159;45.634;9.420;2023-07-28T04:36:16;7.13;;;2.88;;
53269;SDS011;39159;45.634;9.420;2023-07-28T04:38:42;6.93;;;2.88;;
53269;SDS011;39159;45.634;9.420;2023-07-28T04:41:07;3.88;;;2.65;;
53269;SDS011;39159;45.634;9.420;2023-07-28T04:43:33;4.28;;;2.15;;
53269;SDS011;39159;45.634;9.420;2023-07-28T04:45:58;3.78;;;2.42;;
53269;SDS011;39159;45.634;9.420;2023-07-28T04:48:24;5.30;;;2.75;;
53269;SDS011;39159;45.634;9.420;2023-07-28T04:50:49;4.03;;;2.50;;
53269;SDS011;39159;45.634;9.420;2023-07-28T04:53:15;5.43;;;2.58;;
53269;SDS011;39159;45.634;9.420;2023-07-28T04:55:40;6.78;;;2.90;;
53269;SDS011;39159;45.634;9.420;2023-07-28T04:58:05;6.78;;;2.60;;
53269;SDS011;39159;45.634;9.420;2023-07-28T05:00:31;3.92;;;2.15;;
53269;SDS011;39159;45.634;9.420;2023-07-28T05:02:56;4.95;;;2.50;;
53269;SDS011;39159;45.634;9.420;2023-07-28T05:05:22;2.92;;;1.90;;
53269;SDS011;39159;45.634;9.420;2023-07-28T05:07:47;3.33;;;2.40;;
53269;SDS011;39159;45.634;9.420;2023-07-28T05:10:13;3.53;;;2.28;;
53269;SDS011;39159;45.634;9.420;2023-07-28T05:12:38;5.30;;;2.10;;
53269;SDS011;39159;45.634;9.420;2023-07-28T05:15:04;3.75;;;2.38;;
53269;SDS011;39159;45.634;9.420;2023-07-28T05:17:31;3.60;;;2.50;;
53269;SDS011;39159;45.634;9.420;2023-07-28T05:19:56;4.82;;;2.38;;
53269;SDS011;39159;45.634;9.420;2023-07-28T05:22:22;5.88;;;2.97;;
53269;SDS011;39159;45.634;9.420;2023-07-28T05:24:47;4.38;;;2.72;;
53269;SDS011;39159;45.634;9.420;2023-07-28T05:27:13;7.50;;;2.70;;
53269;SDS011;39159;45.634;9.420;2023-07-28T05:29:38;5.55;;;2.85;;
53269;SDS011;39159;45.634;9.420;2023-07-28T05:32:04;6.80;;;2.97;;
53269;SDS011;39159;45.634;9.420;2023-07-28T05:34:30;4.90;;;2.20;;
53269;SDS011;39159;45.634;9.420;2023-07-28T05:36:56;2.83;;;2.53;;
53269;SDS011;39159;45.634;9.420;2023-07-28T05:39:21;5.43;;;2.67;;
53269;SDS011;39159;45.634;9.420;2023-07-28T05:41:47;5.82;;;2.75;;
53269;SDS011;39159;45.634;9.420;2023-07-28T05:44:12;6.95;;;2.75;;
53269;SDS011;39159;45.634;9.420;2023-07-28T05:46:38;3.67;;;2.45;;
53269;SDS011;39159;45.634;9.420;2023-07-28T05:49:03;6.68;;;2.45;;
53269;SDS011;39159;45.634;9.420;2023-07-28T05:51:29;5.78;;;2.60;;
53269;SDS011;39159;45.634;9.420;2023-07-28T05:53:55;6.10;;;2.90;;
53269;SDS011;39159;45.634;9.420;2023-07-28T05:56:21;6.10;;;2.80;;
53269;SDS011;39159;45.634;9.420;2023-07-28T05:58:46;5.72;;;2.83;;
53269;SDS011;39159;45.634;9.420;2023-07-28T06:01:12;7.43;;;2.42;;
53269;SDS011;39159;45.634;9.420;2023-07-28T06:03:38;4.97;;;2.70;;
53269;SDS011;39159;45.634;9.420;2023-07-28T06:06:03;7.50;;;2.50;;
53269;SDS011;39159;45.634;9.420;2023-07-28T06:08:29;7.65;;;2.83;;
53269;SDS011;39159;45.634;9.420;2023-07-28T06:10:54;4.45;;;2.38;;
53269;SDS011;39159;45.634;9.420;2023-07-28T06:13:20;5.05;;;2.60;;
53269;SDS011;39159;45.634;9.420;2023-07-28T06:15:46;5.93;;;2.70;;
53269;SDS011;39159;45.634;9.420;2023-07-28T06:18:11;3.53;;;2.53;;
53269;SDS011;39159;45.634;9.420;2023-07-28T06:20:37;5.07;;;2.42;;
53269;SDS011;39159;45.634;9.420;2023-07-28T06:23:02;7.85;;;2.22;;
53269;SDS011;39159;45.634;9.420;2023-07-28T06:25:28;3.20;;;2.45;;
53269;SDS011;39159;45.634;9.420;2023-07-28T06:27:53;3.72;;;2.35;;
53269;SDS011;39159;45.634;9.420;2023-07-28T06:30:19;4.97;;;3.10;;
53269;SDS011;39159;45.634;9.420;2023-07-28T06:32:45;7.28;;;3.08;;
53269;SDS011;39159;45.634;9.420;2023-07-28T06:35:11;18.30;;;6.68;;
53269;SDS011;39159;45.634;9.420;2023-07-28T06:37:36;20.35;;;5.75;;
53269;SDS011;39159;45.634;9.420;2023-07-28T06:40:04;14.82;;;5.75;;
53269;SDS011;39159;45.634;9.420;2023-07-28T06:42:32;12.13;;;5.53;;
53269;SDS011;39159;45.634;9.420;2023-07-28T06:44:59;10.73;;;4.28;;
53269;SDS011;39159;45.634;9.420;2023-07-28T06:47:24;7.53;;;3.03;;
53269;SDS011;39159;45.634;9.420;2023-07-28T06:49:49;7.18;;;2.78;;
53269;SDS011;39159;45.634;9.420;2023-07-28T06:52:15;6.50;;;2.30;;
53269;SDS011;39159;45.634;9.420;2023-07-28T06:54:40;5.13;;;2.28;;
53269;SDS011;39159;45.634;9.420;2023-07-28T06:57:06;3.17;;;2.22;;
53269;SDS011;39159;45.634;9.420;2023-07-28T06:59:32;5.63;;;2.47;;
53269;SDS011;39159;45.634;9.420;2023-07-28T07:01:57;5.95;;;2.50;;
53269;SDS011;39159;45.634;9.420;2023-07-28T07:04:23;5.25;;;2.33;;
53269;SDS011;39159;45.634;9.420;2023-07-28T07:06:48;5.72;;;2.08;;
53269;SDS011;39159;45.634;9.420;2023-07-28T07:09:14;3.95;;;2.15;;
53269;SDS011;39159;45.634;9.420;2023-07-28T07:11:40;4.43;;;2.30;;
53269;SDS011;39159;45.634;9.420;2023-07-28T07:14:05;4.60;;;2.45;;
53269;SDS011;39159;45.634;9.420;2023-07-28T07:16:31;5.40;;;2.33;;
53269;SDS011;39159;45.634;9.420;2023-07-28T07:18:57;3.85;;;2.25;;
53269;SDS011;39159;45.634;9.420;2023-07-28T07:21:23;4.45;;;2.10;;
53269;SDS011;39159;45.634;9.420;2023-07-28T07:23:48;4.88;;;1.90;;
53269;SDS011;39159;45.634;9.420;2023-07-28T07:26:14;4.25;;;2.30;;
53269;SDS011;39159;45.634;9.420;2023-07-28T07:28:39;4.45;;;2.28;;
53269;SDS011;39159;45.634;9.420;2023-07-28T07:31:11;3.97;;;2.25;;
53269;SDS011;39159;45.634;9.420;2023-07-28T07:33:40;4.60;;;2.40;;
53269;SDS011;39159;45.634;9.420;2023-07-28T07:36:06;5.45;;;2.63;;
53269;SDS011;39159;45.634;9.420;2023-07-28T07:38:37;8.77;;;3.13;;
53269;SDS011;39159;45.634;9.420;2023-07-28T07:41:03;7.72;;;3.92;;
53269;SDS011;39159;45.634;9.420;2023-07-28T07:43:29;6.60;;;3.22;;
53269;SDS011;39159;45.634;9.420;2023-07-28T07:45:55;4.53;;;2.53;;
53269;SDS011;39159;45.634;9.420;2023-07-28T07:48:20;5.43;;;2.45;;
53269;SDS011;39159;45.634;9.420;2023-07-28T07:50:46;6.63;;;2.67;;
53269;SDS011;39159;45.634;9.420;2023-07-28T07:53:11;4.15;;;2.25;;
53269;SDS011;39159;45.634;9.420;2023-07-28T07:55:36;4.70;;;2.20;;
53269;SDS011;39159;45.634;9.420;2023-07-28T07:58:02;5.32;;;2.58;;
53269;SDS011;39159;45.634;9.420;2023-07-28T08:00:28;7.22;;;2.35;;
53269;SDS011;39159;45.634;9.420;2023-07-28T08:02:54;7.43;;;2.20;;
53269;SDS011;39159;45.634;9.420;2023-07-28T08:05:19;3.10;;;2.10;;
53269;SDS011;39159;45.634;9.420;2023-07-28T08:07:46;4.82;;;2.47;;
53269;SDS011;39159;45.634;9.420;2023-07-28T08:10:12;5.13;;;2.95;;
53269;SDS011;39159;45.634;9.420;2023-07-28T08:12:38;5.32;;;3.30;;
53269;SDS011;39159;45.634;9.420;2023-07-28T08:15:03;7.20;;;2.70;;
53269;SDS011;39159;45.634;9.420;2023-07-28T08:17:29;5.10;;;2.63;;
53269;SDS011;39159;45.634;9.420;2023-07-28T08:19:54;4.43;;;2.60;;
53269;SDS011;39159;45.634;9.420;2023-07-28T08:22:20;4.53;;;2.17;;
53269;SDS011;39159;45.634;9.420;2023-07-28T08:24:45;6.18;;;3.00;;
53269;SDS011;39159;45.634;9.420;2023-07-28T08:27:11;3.85;;;2.50;;
53269;SDS011;39159;45.634;9.420;2023-07-28T08:29:36;6.93;;;3.13;;
53269;SDS011;39159;45.634;9.420;2023-07-28T08:32:01;5.32;;;2.70;;
53269;SDS011;39159;45.634;9.420;2023-07-28T08:34:27;4.55;;;2.60;;
53269;SDS011;39159;45.634;9.420;2023-07-28T08:36:53;7.40;;;2.83;;
53269;SDS011;39159;45.634;9.420;2023-07-28T08:39:18;4.88;;;2.88;;
53269;SDS011;39159;45.634;9.420;2023-07-28T08:41:43;4.82;;;2.78;;
53269;SDS011;39159;45.634;9.420;2023-07-28T08:44:09;8.48;;;2.28;;
53269;SDS011;39159;45.634;9.420;2023-07-28T08:46:34;4.70;;;2.67;;
53269;SDS011;39159;45.634;9.420;2023-07-28T08:49:01;4.72;;;2.40;;
53269;SDS011;39159;45.634;9.420;2023-07-28T08:51:27;7.43;;;2.78;;
53269;SDS011;39159;45.634;9.420;2023-07-28T08:53:52;4.47;;;2.33;;
53269;SDS011;39159;45.634;9.420;2023-07-28T08:56:18;4.18;;;2.50;;
53269;SDS011;39159;45.634;9.420;2023-07-28T08:58:44;4.13;;;2.63;;
53269;SDS011;39159;45.634;9.420;2023-07-28T09:01:10;5.25;;;2.90;;
53269;SDS011;39159;45.634;9.420;2023-07-28T09:03:39;6.97;;;3.10;;
53269;SDS011;39159;45.634;9.420;2023-07-28T09:06:06;5.10;;;2.83;;
53269;SDS011;39159;45.634;9.420;2023-07-28T09:08:34;4.25;;;2.20;;
53269;SDS011;39159;45.634;9.420;2023-07-28T09:11:03;4.70;;;2.47;;
53269;SDS011;39159;45.634;9.420;2023-07-28T09:13:38;8.05;;;2.70;;
53269;SDS011;39159;45.634;9.420;2023-07-28T09:16:15;6.05;;;2.35;;
53269;SDS011;39159;45.634;9.420;2023-07-28T09:18:42;5.70;;;2.67;;
53269;SDS011;39159;45.634;9.420;2023-07-28T09:21:15;5.75;;;2.50;;
53269;SDS011;39159;45.634;9.420;2023-07-28T09:23:41;5.60;;;2.72;;
53269;SDS011;39159;45.634;9.420;2023-07-28T09:26:07;5.97;;;2.55;;
53269;SDS011;39159;45.634;9.420;2023-07-28T09:28:36;5.97;;;2.53;;
53269;SDS011;39159;45.634;9.420;2023-07-28T09:31:04;4.95;;;2.50;;
53269;SDS011;39159;45.634;9.420;2023-07-28T09:33:31;5.72;;;2.25;;
53269;SDS011;39159;45.634;9.420;2023-07-28T09:35:57;4.50;;;2.20;;
53269;SDS011;39159;45.634;9.420;2023-07-28T09:38:41;7.78;;;2.95;;
53269;SDS011;39159;45.634;9.420;2023-07-28T09:41:07;3.35;;;2.20;;
53269;SDS011;39159;45.634;9.420;2023-07-28T09:43:36;5.68;;;2.25;;
53269;SDS011;39159;45.634;9.420;2023-07-28T09:46:06;4.38;;;2.00;;
53269;SDS011;39159;45.634;9.420;2023-07-28T09:48:33;3.55;;;2.20;;
53269;SDS011;39159;45.634;9.420;2023-07-28T09:51:10;3.65;;;2.20;;
53269;SDS011;39159;45.634;9.420;2023-07-28T09:53:50;4.03;;;2.22;;
53269;SDS011;39159;45.634;9.420;2023-07-28T09:56:19;6.07;;;2.88;;
53269;SDS011;39159;45.634;9.420;2023-07-28T09:58:49;3.95;;;2.38;;
53269;SDS011;39159;45.634;9.420;2023-07-28T10:01:16;2.65;;;1.90;;
53269;SDS011;39159;45.634;9.420;2023-07-28T10:03:42;6.05;;;2.22;;
53269;SDS011;39159;45.634;9.420;2023-07-28T10:06:08;6.68;;;1.83;;
53269;SDS011;39159;45.634;9.420;2023-07-28T10:08:34;4.35;;;2.03;;
53269;SDS011;39159;45.634;9.420;2023-07-28T10:11:01;4.50;;;1.88;;
53269;SDS011;39159;45.634;9.420;2023-07-28T10:13:27;4.45;;;2.67;;
53269;SDS011;39159;45.634;9.420;2023-07-28T10:15:53;6.82;;;3.33;;
53269;SDS011;39159;45.634;9.420;2023-07-28T10:18:21;8.45;;;3.92;;
53269;SDS011;39159;45.634;9.420;2023-07-28T10:20:47;4.68;;;2.80;;
53269;SDS011;39159;45.634;9.420;2023-07-28T10:23:17;6.60;;;2.47;;
53269;SDS011;39159;45.634;9.420;2023-07-28T10:28:30;5.93;;;2.50;;
53269;SDS011;39159;45.634;9.420;2023-07-28T10:31:10;9.32;;;4.53;;
53269;SDS011;39159;45.634;9.420;2023-07-28T10:33:54;7.45;;;2.88;;
53269;SDS011;39159;45.634;9.420;2023-07-28T10:39:01;6.07;;;2.25;;
53269;SDS011;39159;45.634;9.420;2023-07-28T10:41:28;5.80;;;2.60;;
53269;SDS011;39159;45.634;9.420;2023-07-28T10:43:53;4.75;;;2.40;;
53269;SDS011;39159;45.634;9.420;2023-07-28T10:46:20;3.85;;;2.20;;
53269;SDS011;39159;45.634;9.420;2023-07-28T10:48:47;7.85;;;3.53;;
53269;SDS011;39159;45.634;9.420;2023-07-28T10:51:23;4.82;;;2.20;;
53269;SDS011;39159;45.634;9.420;2023-07-28T10:53:56;4.72;;;2.30;;
53269;SDS011;39159;45.634;9.420;2023-07-28T10:56:22;3.35;;;2.10;;
53269;SDS011;39159;45.634;9.420;2023-07-28T10:58:58;12.52;;;3.28;;
53269;SDS011;39159;45.634;9.420;2023-07-28T11:01:33;5.65;;;2.83;;
53269;SDS011;39159;45.634;9.420;2023-07-28T11:04:17;4.18;;;2.05;;
53269;SDS011;39159;45.634;9.420;2023-07-28T11:06:44;3.78;;;2.13;;
53269;SDS011;39159;45.634;9.420;2023-07-28T11:09:11;4.45;;;2.83;;
53269;SDS011;39159;45.634;9.420;2023-07-28T11:11:39;6.72;;;3.10;;
53269;SDS011;39159;45.634;9.420;2023-07-28T11:14:06;5.93;;;2.90;;
53269;SDS011;39159;45.634;9.420;2023-07-28T11:16:36;7.35;;;3.45;;
53269;SDS011;39159;45.634;9.420;2023-07-28T11:19:24;5.88;;;3.50;;
53269;SDS011;39159;45.634;9.420;2023-07-28T11:21:49;9.23;;;3.97;;
53269;SDS011;39159;45.634;9.420;2023-07-28T11:24:18;12.52;;;3.83;;
53269;SDS011;39159;45.634;9.420;2023-07-28T11:26:45;6.75;;;2.83;;
53269;SDS011;39159;45.634;9.420;2023-07-28T11:29:11;8.25;;;3.17;;
53269;SDS011;39159;45.634;9.420;2023-07-28T11:31:36;6.78;;;3.55;;
53269;SDS011;39159;45.634;9.420;2023-07-28T11:34:02;10.13;;;3.63;;
53269;SDS011;39159;45.634;9.420;2023-07-28T11:36:28;5.85;;;3.80;;
53269;SDS011;39159;45.634;9.420;2023-07-28T11:38:57;7.82;;;4.32;;
53269;SDS011;39159;45.634;9.420;2023-07-28T11:41:24;6.95;;;4.30;;
53269;SDS011;39159;45.634;9.420;2023-07-28T11:43:51;11.80;;;3.80;;
53269;SDS011;39159;45.634;9.420;2023-07-28T11:49:11;7.72;;;3.90;;
53269;SDS011;39159;45.634;9.420;2023-07-28T11:51:43;7.13;;;3.90;;
53269;SDS011;39159;45.634;9.420;2023-07-28T11:54:13;9.23;;;3.60;;
53269;SDS011;39159;45.634;9.420;2023-07-28T11:56:43;6.18;;;3.70;;
53269;SDS011;39159;45.634;9.420;2023-07-28T11:59:10;11.93;;;4.40;;
53269;SDS011;39159;45.634;9.420;2023-07-28T12:04:24;8.23;;;3.80;;
53269;SDS011;39159;45.634;9.420;2023-07-28T12:07:05;9.57;;;4.43;;
53269;SDS011;39159;45.634;9.420;2023-07-28T12:09:52;5.78;;;3.58;;
53269;SDS011;39159;45.634;9.420;2023-07-28T12:12:17;9.45;;;4.47;;
53269;SDS011;39159;45.634;9.420;2023-07-28T12:14:44;8.68;;;4.93;;
53269;SDS011;39159;45.634;9.420;2023-07-28T12:17:16;8.75;;;4.47;;
53269;SDS011;39159;45.634;9.420;2023-07-28T12:19:57;5.95;;;3.10;;
53269;SDS011;39159;45.634;9.420;2023-07-28T12:22:24;8.30;;;4.60;;
53269;SDS011;39159;45.634;9.420;2023-07-28T12:24:49;13.70;;;4.13;;
53269;SDS011;39159;45.634;9.420;2023-07-28T12:27:14;12.43;;;4.30;;
53269;SDS011;39159;45.634;9.420;2023-07-28T12:29:41;9.27;;;4.85;;
53269;SDS011;39159;45.634;9.420;2023-07-28T12:32:06;11.40;;;4.30;;
53269;SDS011;39159;45.634;9.420;2023-07-28T12:34:32;6.40;;;3.85;;
53269;SDS011;39159;45.634;9.420;2023-07-28T12:36:58;9.77;;;4.68;;
53269;SDS011;39159;45.634;9.420;2023-07-28T12:39:23;6.15;;;3.55;;
53269;SDS011;39159;45.634;9.420;2023-07-28T12:41:49;10.65;;;3.20;;
53269;SDS011;39159;45.634;9.420;2023-07-28T12:44:19;6.47;;;3.97;;
53269;SDS011;39159;45.634;9.420;2023-07-28T12:46:45;9.13;;;3.90;;
53269;SDS011;39159;45.634;9.420;2023-07-28T12:49:10;8.52;;;3.47;;
53269;SDS011;39159;45.634;9.420;2023-07-28T12:51:36;11.57;;;3.38;;
53269;SDS011;39159;45.634;9.420;2023-07-28T12:54:01;9.45;;;3.30;;
53269;SDS011;39159;45.634;9.420;2023-07-28T12:56:27;10.15;;;2.88;;
53269;SDS011;39159;45.634;9.420;2023-07-28T12:58:52;9.43;;;3.05;;
53269;SDS011;39159;45.634;9.420;2023-07-28T13:01:18;7.05;;;3.38;;
53269;SDS011;39159;45.634;9.420;2023-07-28T13:03:43;7.22;;;3.13;;
53269;SDS011;39159;45.634;9.420;2023-07-28T13:06:08;8.10;;;2.80;;
53269;SDS011;39159;45.634;9.420;2023-07-28T13:08:34;5.20;;;2.38;;
53269;SDS011;39159;45.634;9.420;2023-07-28T13:11:00;5.57;;;2.63;;
53269;SDS011;39159;45.634;9.420;2023-07-28T13:13:25;9.60;;;2.70;;
53269;SDS011;39159;45.634;9.420;2023-07-28T13:15:50;6.07;;;2.80;;
53269;SDS011;39159;45.634;9.420;2023-07-28T13:18:16;9.55;;;3.63;;
53269;SDS011;39159;45.634;9.420;2023-07-28T13:20:42;5.20;;;2.90;;
53269;SDS011;39159;45.634;9.420;2023-07-28T13:23:07;6.57;;;2.90;;
53269;SDS011;39159;45.634;9.420;2023-07-28T13:25:32;7.70;;;2.70;;
53269;SDS011;39159;45.634;9.420;2023-07-28T13:27:58;8.35;;;3.13;;
53269;SDS011;39159;45.634;9.420;2023-07-28T13:30:23;6.47;;;2.47;;
53269;SDS011;39159;45.634;9.420;2023-07-28T13:32:49;6.75;;;2.80;;
53269;SDS011;39159;45.634;9.420;2023-07-28T13:35:14;5.80;;;2.70;;
53269;SDS011;39159;45.634;9.420;2023-07-28T13:37:40;5.88;;;2.20;;
53269;SDS011;39159;45.634;9.420;2023-07-28T13:40:05;8.55;;;3.88;;
53269;SDS011;39159;45.634;9.420;2023-07-28T13:42:31;4.88;;;2.10;;
53269;SDS011;39159;45.634;9.420;2023-07-28T13:44:57;4.60;;;2.50;;
53269;SDS011;39159;45.634;9.420;2023-07-28T13:47:22;7.05;;;2.53;;
53269;SDS011;39159;45.634;9.420;2023-07-28T13:49:47;9.02;;;2.67;;
53269;SDS011;39159;45.634;9.420;2023-07-28T13:52:13;7.50;;;2.80;;
53269;SDS011;39159;45.634;9.420;2023-07-28T13:54:38;5.97;;;2.83;;
53269;SDS011;39159;45.634;9.420;2023-07-28T13:57:04;7.28;;;2.47;;
53269;SDS011;39159;45.634;9.420;2023-07-28T13:59:29;4.72;;;2.55;;
53269;SDS011;39159;45.634;9.420;2023-07-28T14:01:55;6.93;;;2.58;;
53269;SDS011;39159;45.634;9.420;2023-07-28T14:04:21;4.60;;;2.45;;
53269;SDS011;39159;45.634;9.420;2023-07-28T14:06:46;5.63;;;2.35;;
53269;SDS011;39159;45.634;9.420;2023-07-28T14:09:11;5.05;;;2.35;;
53269;SDS011;39159;45.634;9.420;2023-07-28T14:11:38;5.85;;;2.03;;
53269;SDS011;39159;45.634;9.420;2023-07-28T14:14:03;6.82;;;2.45;;
53269;SDS011;39159;45.634;9.420;2023-07-28T14:16:28;5.45;;;2.55;;
53269;SDS011;39159;45.634;9.420;2023-07-28T14:18:56;4.53;;;2.78;;
53269;SDS011;39159;45.634;9.420;2023-07-28T14:21:21;9.57;;;2.60;;
53269;SDS011;39159;45.634;9.420;2023-07-28T14:23:47;6.82;;;2.20;;
53269;SDS011;39159;45.634;9.420;2023-07-28T14:26:12;5.53;;;2.25;;
53269;SDS011;39159;45.634;9.420;2023-07-28T14:28:37;10.00;;;2.38;;
53269;SDS011;39159;45.634;9.420;2023-07-28T14:31:03;4.72;;;2.30;;
53269;SDS011;39159;45.634;9.420;2023-07-28T14:33:28;4.65;;;1.98;;
53269;SDS011;39159;45.634;9.420;2023-07-28T14:35:54;6.68;;;2.67;;
53269;SDS011;39159;45.634;9.420;2023-07-28T14:38:19;5.55;;;2.33;;
53269;SDS011;39159;45.634;9.420;2023-07-28T14:40:44;8.52;;;2.78;;
53269;SDS011;39159;45.634;9.420;2023-07-28T14:43:14;7.53;;;2.47;;
53269;SDS011;39159;45.634;9.420;2023-07-28T14:45:40;7.63;;;2.20;;
53269;SDS011;39159;45.634;9.420;2023-07-28T14:48:05;3.90;;;2.15;;
53269;SDS011;39159;45.634;9.420;2023-07-28T14:50:31;6.03;;;2.42;;
53269;SDS011;39159;45.634;9.420;2023-07-28T14:52:59;3.83;;;2.05;;
53269;SDS011;39159;45.634;9.420;2023-07-28T14:55:25;3.63;;;2.20;;
53269;SDS011;39159;45.634;9.420;2023-07-28T14:57:51;5.22;;;2.47;;